Terminal Aerodrome Forecast
Issued by NWS

Current Version | Previous Version | Text Only | Print | Product List | Glossary On
Versions: 1 2 3 4 5 6 7 8 9 10 11 12 13
000
FTUS45 KPIH 010500
TAFSUN
TAF
KSUN 010520Z 0106/0206 30006KT P6SM SCT070 SCT100 BKN130
     FM010800 14010KT P6SM VCSH BKN070 OVC130
     FM011200 14006KT P6SM SCT090 BKN130
     FM011700 15015G25KT P6SM -SHRA SCT025 BKN050 OVC090
     FM012200 16015G25KT P6SM -SHRA SCT008 OVC015
      AMD LTD TO CLD VIS AND WIND TIL 011300=

USA.gov is the U.S. government's official web portal to all federal, state and local government web resources and services.